createdAt,value
2022-10-30T00:01:47.362Z,10.20
2022-10-30T00:04:13.739Z,9.45
2022-10-30T00:06:41.269Z,10.20
2022-10-30T00:09:22.356Z,11.15
2022-10-30T00:11:58.689Z,10.40
2022-10-30T00:14:25.741Z,10.65
2022-10-30T00:16:52.005Z,10.48
2022-10-30T00:19:37.808Z,10.60
2022-10-30T00:24:29.808Z,10.25
2022-10-30T00:26:56.094Z,12.25
2022-10-30T00:29:25.042Z,11.02
2022-10-30T00:31:51.320Z,10.52
2022-10-30T00:34:17.601Z,11.63
2022-10-30T00:36:43.878Z,10.02
2022-10-30T00:39:10.182Z,9.57
2022-10-30T00:41:39.360Z,9.82
2022-10-30T00:44:24.261Z,8.87
2022-10-30T00:46:50.544Z,8.75
2022-10-30T00:49:17.001Z,10.82
2022-10-30T00:51:45.700Z,11.02
2022-10-30T00:54:12.133Z,9.75
2022-10-30T00:56:38.549Z,10.18
2022-10-30T00:59:06.341Z,10.45
2022-10-30T01:01:35.381Z,8.75
2022-10-30T01:04:02.870Z,11.02
2022-10-30T01:06:30.090Z,8.25
2022-10-30T01:08:59.867Z,10.60
2022-10-30T01:11:26.766Z,10.38
2022-10-30T01:13:53.779Z,10.02
2022-10-30T01:16:22.823Z,9.02
2022-10-30T01:19:07.971Z,9.68
2022-10-30T01:21:52.517Z,8.38
2022-10-30T01:24:21.910Z,8.88
2022-10-30T01:27:07.247Z,8.85
2022-10-30T01:29:57.049Z,9.23
2022-10-30T01:32:31.485Z,9.93
2022-10-30T01:35:09.708Z,7.88
2022-10-30T01:37:48.118Z,9.45
2022-10-30T01:40:16.994Z,11.38
2022-10-30T01:42:53.975Z,8.57
2022-10-30T01:45:23.396Z,9.30
2022-10-30T01:48:14.160Z,10.57
2022-10-30T01:50:46.469Z,9.95
2022-10-30T01:53:21.409Z,9.00
2022-10-30T01:55:56.923Z,8.10
2022-10-30T01:58:28.989Z,8.55
2022-10-30T02:00:57.249Z,8.75
2022-10-30T02:03:23.799Z,10.13
2022-10-30T02:05:51.434Z,9.20
2022-10-30T02:08:17.861Z,9.18
2022-10-30T02:10:45.474Z,9.70
2022-10-30T02:13:11.761Z,8.88
2022-10-30T02:15:38.195Z,9.15
2022-10-30T02:18:04.883Z,7.75
2022-10-30T02:20:31.622Z,8.63
2022-10-30T02:22:59.447Z,8.48
2022-10-30T02:25:26.270Z,7.82
2022-10-30T02:27:52.605Z,8.68
2022-10-30T02:30:18.898Z,8.55
2022-10-30T02:32:45.237Z,9.65
2022-10-30T02:35:11.574Z,7.43
2022-10-30T02:37:39.514Z,8.48
2022-10-30T02:40:08.216Z,8.15
2022-10-30T02:42:34.956Z,8.32
2022-10-30T02:45:01.236Z,7.72
2022-10-30T02:47:28.466Z,7.80
2022-10-30T02:49:54.781Z,7.85
2022-10-30T02:52:21.045Z,7.70
2022-10-30T02:54:47.354Z,8.27
2022-10-30T02:57:13.630Z,8.70
2022-10-30T02:59:39.919Z,8.77
2022-10-30T03:02:06.228Z,8.32
2022-10-30T03:04:32.598Z,7.72
2022-10-30T03:06:58.878Z,8.68
2022-10-30T03:09:25.215Z,6.88
2022-10-30T03:11:51.501Z,7.80
2022-10-30T03:14:17.816Z,7.18
2022-10-30T03:16:44.098Z,7.10
2022-10-30T03:19:10.360Z,8.77
2022-10-30T03:21:36.726Z,7.72
2022-10-30T03:24:03.138Z,8.88
2022-10-30T03:26:29.521Z,7.53
2022-10-30T03:28:55.792Z,6.93
2022-10-30T03:31:22.823Z,7.07
2022-10-30T03:33:49.106Z,7.07
2022-10-30T03:36:15.663Z,7.10
2022-10-30T03:38:42.361Z,9.27
2022-10-30T03:41:08.713Z,10.05
2022-10-30T03:43:35.018Z,7.78
2022-10-30T03:46:01.598Z,6.72
2022-10-30T03:48:29.224Z,7.20
2022-10-30T03:50:56.432Z,7.55
2022-10-30T03:53:23.969Z,8.23
2022-10-30T03:55:50.806Z,6.75
2022-10-30T03:58:17.105Z,7.72
2022-10-30T04:00:43.447Z,7.03
2022-10-30T04:03:10.000Z,7.45
2022-10-30T04:05:36.682Z,7.80
2022-10-30T04:08:04.361Z,8.77
2022-10-30T04:10:30.703Z,7.03
2022-10-30T04:13:01.183Z,7.78
2022-10-30T04:15:27.547Z,8.60
2022-10-30T04:17:53.821Z,9.45
2022-10-30T04:20:21.012Z,8.35
2022-10-30T04:22:47.298Z,8.65
2022-10-30T04:25:13.587Z,10.20
2022-10-30T04:27:41.043Z,9.15
2022-10-30T04:30:07.793Z,9.10
2022-10-30T04:32:34.048Z,8.13
2022-10-30T04:35:00.329Z,7.90
2022-10-30T04:37:26.618Z,9.63
2022-10-30T04:39:52.911Z,10.68
2022-10-30T04:42:19.187Z,11.07
2022-10-30T04:44:45.465Z,9.02
2022-10-30T04:47:11.764Z,9.35
2022-10-30T04:49:38.020Z,9.60
2022-10-30T04:52:04.433Z,9.30
2022-10-30T04:54:30.773Z,10.23
2022-10-30T04:56:57.104Z,11.60
2022-10-30T04:59:23.381Z,7.80
2022-10-30T05:01:49.752Z,9.63
2022-10-30T05:04:16.110Z,9.52
2022-10-30T05:06:42.419Z,10.10
2022-10-30T05:09:08.693Z,8.93
2022-10-30T05:11:34.983Z,10.68
2022-10-30T05:14:01.277Z,11.05
2022-10-30T05:16:27.624Z,8.77
2022-10-30T05:18:53.892Z,11.48
2022-10-30T05:21:20.236Z,10.18
2022-10-30T05:23:46.761Z,8.63
2022-10-30T05:26:13.101Z,9.05
2022-10-30T05:28:40.163Z,10.07
2022-10-30T05:31:06.453Z,8.52
2022-10-30T05:33:32.721Z,10.90
2022-10-30T05:35:58.999Z,10.40
2022-10-30T05:38:25.349Z,11.40
2022-10-30T05:40:51.634Z,8.80
2022-10-30T05:43:18.047Z,10.40
2022-10-30T05:45:44.371Z,10.10
2022-10-30T05:48:10.700Z,10.07
2022-10-30T05:50:36.997Z,9.75
2022-10-30T05:53:04.235Z,9.40
2022-10-30T05:55:30.566Z,9.68
2022-10-30T05:57:58.315Z,9.77
2022-10-30T06:00:25.342Z,9.45
2022-10-30T06:02:51.747Z,9.40
2022-10-30T06:05:18.200Z,8.88
2022-10-30T06:07:44.521Z,8.80
2022-10-30T06:10:10.791Z,9.88
2022-10-30T06:12:37.053Z,9.40
2022-10-30T06:15:03.530Z,10.60
2022-10-30T06:17:30.413Z,11.07
2022-10-30T06:19:56.686Z,11.10
2022-10-30T06:22:23.009Z,12.15
2022-10-30T06:24:49.269Z,11.25
2022-10-30T06:27:15.552Z,10.73
2022-10-30T06:29:41.822Z,9.98
2022-10-30T06:32:08.158Z,11.43
2022-10-30T06:34:34.513Z,9.30
2022-10-30T06:37:00.929Z,10.70
2022-10-30T06:39:27.240Z,10.52
2022-10-30T06:41:54.041Z,10.75
2022-10-30T06:44:20.304Z,8.48
2022-10-30T06:46:46.604Z,8.52
2022-10-30T06:49:12.878Z,7.82
2022-10-30T06:51:39.179Z,9.77
2022-10-30T06:54:05.476Z,10.32
2022-10-30T06:56:31.794Z,10.93
2022-10-30T06:58:58.679Z,9.98
2022-10-30T07:01:25.024Z,11.05
2022-10-30T07:03:51.324Z,9.45
2022-10-30T07:06:17.706Z,8.48
2022-10-30T07:08:44.064Z,8.63
2022-10-30T07:11:10.353Z,9.35
2022-10-30T07:13:36.741Z,8.93
2022-10-30T07:16:03.237Z,10.15
2022-10-30T07:18:29.724Z,8.82
2022-10-30T07:20:56.592Z,8.88
2022-10-30T07:23:23.251Z,10.88
2022-10-30T07:25:49.533Z,9.00
2022-10-30T07:28:15.817Z,9.32
2022-10-30T07:30:42.136Z,9.80
2022-10-30T07:33:09.183Z,8.93
2022-10-30T07:35:36.073Z,9.30
2022-10-30T07:38:06.224Z,10.13
2022-10-30T07:43:00.280Z,11.95
2022-10-30T07:45:27.856Z,8.50
2022-10-30T07:47:54.339Z,7.88
2022-10-30T07:50:20.845Z,9.57
2022-10-30T07:52:47.193Z,7.90
2022-10-30T07:55:13.466Z,9.88
2022-10-30T07:57:41.044Z,8.35
2022-10-30T08:00:08.974Z,9.40
2022-10-30T08:02:35.350Z,8.23
2022-10-30T08:05:01.904Z,10.30
2022-10-30T08:07:31.989Z,8.38
2022-10-30T08:12:24.920Z,7.95
2022-10-30T08:14:51.196Z,9.50
2022-10-30T08:17:17.480Z,8.68
2022-10-30T08:19:43.897Z,7.93
2022-10-30T08:22:11.020Z,6.55
2022-10-30T08:24:37.364Z,9.98
2022-10-30T08:27:04.154Z,8.18
2022-10-30T08:29:30.532Z,6.78
2022-10-30T08:31:56.822Z,7.10
2022-10-30T08:34:23.541Z,6.55
2022-10-30T08:36:50.253Z,6.05
2022-10-30T08:39:17.008Z,5.65
2022-10-30T08:41:43.397Z,5.55
2022-10-30T08:44:09.765Z,5.45
2022-10-30T08:46:36.170Z,6.40
2022-10-30T08:49:02.442Z,5.30
2022-10-30T08:51:31.793Z,4.60
2022-10-30T08:53:58.067Z,5.10
2022-10-30T08:56:24.355Z,6.35
2022-10-30T08:58:50.915Z,4.82
2022-10-30T09:01:19.008Z,4.35
2022-10-30T09:03:45.799Z,5.00
2022-10-30T09:06:12.127Z,4.28
2022-10-30T09:08:38.418Z,3.88
2022-10-30T09:11:04.892Z,4.65
2022-10-30T09:13:31.169Z,4.20
2022-10-30T09:16:03.864Z,4.72
2022-10-30T09:18:30.216Z,5.18
2022-10-30T09:20:56.562Z,4.50
2022-10-30T09:23:22.928Z,3.92
2022-10-30T09:25:49.214Z,4.40
2022-10-30T09:28:15.504Z,3.45
2022-10-30T09:30:41.826Z,4.57
2022-10-30T09:33:08.864Z,4.30
2022-10-30T09:35:37.041Z,4.80
2022-10-30T09:38:03.500Z,4.05
2022-10-30T09:40:48.631Z,3.88
2022-10-30T09:43:34.391Z,3.65
2022-10-30T09:46:20.036Z,3.40
2022-10-30T09:49:12.676Z,3.70
2022-10-30T09:51:49.085Z,2.95
2022-10-30T09:54:21.096Z,5.38
2022-10-30T09:57:02.312Z,4.20
2022-10-30T09:59:44.122Z,3.60
2022-10-30T10:02:19.732Z,4.97
2022-10-30T10:04:48.902Z,4.78
2022-10-30T10:07:19.653Z,3.33
2022-10-30T10:09:47.404Z,5.07
2022-10-30T10:12:17.421Z,4.30
2022-10-30T10:14:45.296Z,3.58
2022-10-30T10:17:13.241Z,3.30
2022-10-30T10:19:44.216Z,3.92
2022-10-30T10:22:30.843Z,4.00
2022-10-30T10:24:57.234Z,3.97
2022-10-30T10:27:35.710Z,3.60
2022-10-30T10:30:25.126Z,4.32
2022-10-30T10:33:08.291Z,3.40
2022-10-30T10:35:45.992Z,3.75
2022-10-30T10:38:31.162Z,4.80
2022-10-30T10:41:03.023Z,3.47
2022-10-30T10:43:46.489Z,5.63
2022-10-30T10:46:15.815Z,4.55
2022-10-30T10:48:55.260Z,3.60
2022-10-30T10:51:27.576Z,3.72
2022-10-30T10:54:05.574Z,3.60
2022-10-30T10:56:34.017Z,3.33
2022-10-30T10:59:03.165Z,2.70
2022-10-30T11:01:36.700Z,3.20
2022-10-30T11:04:05.040Z,3.03
2022-10-30T11:06:39.176Z,3.03
2022-10-30T11:09:24.732Z,3.88
2022-10-30T11:11:52.176Z,3.85
2022-10-30T11:14:23.544Z,3.03
2022-10-30T11:17:02.368Z,2.33
2022-10-30T11:19:29.920Z,3.15
2022-10-30T11:21:57.387Z,3.70
2022-10-30T11:24:34.133Z,3.55
2022-10-30T11:27:20.405Z,2.33
2022-10-30T11:29:48.958Z,2.83
2022-10-30T11:32:19.479Z,3.60
2022-10-30T11:34:45.784Z,2.65
2022-10-30T11:37:29.045Z,2.92
2022-10-30T11:40:02.180Z,2.70
2022-10-30T11:42:28.584Z,3.97
2022-10-30T11:44:55.738Z,3.72
2022-10-30T11:47:26.184Z,3.10
2022-10-30T11:49:54.019Z,3.85
2022-10-30T11:52:24.375Z,4.97
2022-10-30T11:54:53.085Z,5.53
2022-10-30T11:57:22.285Z,3.20
2022-10-30T11:59:48.889Z,3.83
2022-10-30T12:02:22.739Z,2.65
2022-10-30T12:04:50.360Z,2.95
2022-10-30T12:07:19.710Z,4.20
2022-10-30T12:09:47.450Z,5.00
2022-10-30T12:12:36.764Z,3.20
2022-10-30T12:15:15.027Z,2.53
2022-10-30T12:17:47.872Z,3.08
2022-10-30T12:20:14.984Z,3.63
2022-10-30T12:22:41.777Z,4.53
2022-10-30T12:25:17.658Z,3.35
2022-10-30T12:27:43.995Z,3.03
2022-10-30T12:30:13.469Z,3.38
2022-10-30T12:32:42.922Z,7.80
2022-10-30T12:35:29.516Z,2.20
2022-10-30T12:37:57.198Z,3.00
2022-10-30T12:40:26.592Z,3.45
2022-10-30T12:42:59.019Z,2.95
2022-10-30T12:45:30.567Z,3.63
2022-10-30T12:48:11.012Z,3.40
2022-10-30T12:50:40.376Z,2.10
2022-10-30T12:53:16.991Z,2.75
2022-10-30T12:55:49.161Z,2.85
2022-10-30T12:58:25.093Z,4.07
2022-10-30T13:01:06.999Z,3.05
2022-10-30T13:03:39.813Z,4.03
2022-10-30T13:06:15.226Z,2.25
2022-10-30T13:08:51.159Z,3.38
2022-10-30T13:11:37.829Z,4.43
2022-10-30T13:14:04.451Z,3.05
2022-10-30T13:16:31.783Z,3.50
2022-10-30T13:19:00.045Z,1.85
2022-10-30T13:21:32.537Z,3.23
2022-10-30T13:24:02.088Z,3.47
2022-10-30T13:26:34.424Z,2.53
2022-10-30T13:29:19.741Z,3.55
2022-10-30T13:32:00.449Z,2.85
2022-10-30T13:34:31.002Z,3.38
2022-10-30T13:37:17.575Z,2.50
2022-10-30T13:40:00.564Z,2.80
2022-10-30T13:42:42.196Z,3.83
2022-10-30T13:45:28.832Z,2.33
2022-10-30T13:48:13.939Z,2.22
2022-10-30T13:50:40.219Z,2.90
2022-10-30T13:53:11.024Z,2.70
2022-10-30T13:55:37.621Z,2.72
2022-10-30T13:58:21.681Z,1.92
2022-10-30T14:00:47.944Z,3.22
2022-10-30T14:03:22.636Z,3.33
2022-10-30T14:05:54.276Z,2.50
2022-10-30T14:11:01.228Z,2.50
2022-10-30T14:13:50.872Z,1.92
2022-10-30T14:16:38.549Z,2.38
2022-10-30T14:19:08.983Z,2.13
2022-10-30T14:21:54.443Z,2.97
2022-10-30T14:24:43.209Z,1.73
2022-10-30T14:27:11.104Z,3.58
2022-10-30T14:29:40.926Z,2.80
2022-10-30T14:32:13.220Z,4.22
2022-10-30T14:34:43.738Z,2.58
2022-10-30T14:37:10.521Z,3.50
2022-10-30T14:39:41.060Z,4.00
2022-10-30T14:42:16.290Z,2.55
2022-10-30T14:45:01.085Z,2.63
2022-10-30T14:47:30.343Z,2.08
2022-10-30T14:52:37.750Z,2.00
2022-10-30T14:55:22.963Z,1.98
2022-10-30T14:57:53.888Z,3.13
2022-10-30T15:00:23.287Z,3.13
2022-10-30T15:05:42.225Z,2.15
2022-10-30T15:08:14.440Z,4.18
2022-10-30T15:10:48.480Z,3.58
2022-10-30T15:13:21.465Z,2.63
2022-10-30T15:15:57.823Z,2.22
2022-10-30T15:18:27.992Z,2.35
2022-10-30T15:20:58.953Z,3.03
2022-10-30T15:23:27.928Z,2.90
2022-10-30T15:25:55.260Z,3.40
2022-10-30T15:28:23.670Z,2.45
2022-10-30T15:30:59.601Z,2.95
2022-10-30T15:33:25.855Z,3.10
2022-10-30T15:35:52.196Z,2.55
2022-10-30T15:38:18.473Z,3.35
2022-10-30T15:40:44.793Z,2.55
2022-10-30T15:43:13.145Z,2.80
2022-10-30T15:45:43.541Z,3.05
2022-10-30T15:48:28.251Z,4.65
2022-10-30T15:51:08.931Z,2.88
2022-10-30T15:53:35.295Z,2.33
2022-10-30T15:56:01.827Z,2.60
2022-10-30T15:58:28.112Z,2.17
2022-10-30T16:00:58.693Z,2.78
2022-10-30T16:03:25.523Z,2.28
2022-10-30T16:06:03.040Z,3.13
2022-10-30T16:08:29.470Z,3.08
2022-10-30T16:10:56.008Z,3.10
2022-10-30T16:13:23.672Z,3.05
2022-10-30T16:15:50.988Z,3.92
2022-10-30T16:18:28.078Z,2.92
2022-10-30T16:20:56.256Z,2.47
2022-10-30T16:23:22.897Z,4.25
2022-10-30T16:25:53.873Z,4.95
2022-10-30T16:28:30.513Z,4.20
2022-10-30T16:31:08.189Z,2.97
2022-10-30T16:33:36.352Z,3.03
2022-10-30T16:36:03.885Z,3.63
2022-10-30T16:38:33.768Z,3.85
2022-10-30T16:43:30.453Z,6.15
2022-10-30T16:45:59.724Z,9.10
2022-10-30T16:48:28.649Z,6.55
2022-10-30T16:50:59.356Z,6.05
2022-10-30T16:53:26.746Z,5.38
2022-10-30T16:55:54.016Z,5.30
2022-10-30T16:58:20.879Z,4.57
2022-10-30T17:01:00.944Z,5.30
2022-10-30T17:03:28.183Z,5.90
2022-10-30T17:06:05.582Z,6.47
2022-10-30T17:08:42.413Z,6.78
2022-10-30T17:11:19.097Z,9.63
2022-10-30T17:13:51.156Z,7.47
2022-10-30T17:16:25.378Z,7.28
2022-10-30T17:18:53.101Z,6.43
2022-10-30T17:21:24.178Z,6.43
2022-10-30T17:23:51.453Z,5.97
2022-10-30T17:26:18.859Z,5.05
2022-10-30T17:28:45.689Z,6.00
2022-10-30T17:31:18.036Z,6.53
2022-10-30T17:33:44.750Z,7.38
2022-10-30T17:36:11.309Z,6.47
2022-10-30T17:38:38.097Z,5.28
2022-10-30T17:41:05.552Z,6.22
2022-10-30T17:43:33.512Z,5.22
2022-10-30T17:46:00.134Z,5.32
2022-10-30T17:48:27.802Z,5.47
2022-10-30T17:50:54.187Z,5.72
2022-10-30T17:53:21.826Z,5.82
2022-10-30T17:55:51.735Z,6.05
2022-10-30T17:58:20.666Z,5.43
2022-10-30T18:00:47.067Z,4.90
2022-10-30T18:03:13.588Z,6.30
2022-10-30T18:05:40.911Z,6.25
2022-10-30T18:08:07.209Z,5.55
2022-10-30T18:10:33.583Z,6.50
2022-10-30T18:13:00.032Z,7.80
2022-10-30T18:15:26.482Z,5.35
2022-10-30T18:17:53.058Z,5.97
2022-10-30T18:20:20.465Z,4.57
2022-10-30T18:22:46.773Z,5.53
2022-10-30T18:25:20.085Z,6.28
2022-10-30T18:27:46.417Z,5.90
2022-10-30T18:30:13.701Z,6.95
2022-10-30T18:32:40.219Z,6.05
2022-10-30T18:35:26.087Z,4.75
2022-10-30T18:37:52.732Z,7.00
2022-10-30T18:40:22.397Z,6.43
2022-10-30T18:42:49.321Z,5.47
2022-10-30T18:45:29.437Z,5.25
2022-10-30T18:50:23.006Z,5.68
2022-10-30T18:52:49.812Z,6.90
2022-10-30T18:55:22.280Z,5.88
2022-10-30T18:57:49.297Z,5.43
2022-10-30T19:00:16.482Z,5.50
2022-10-30T19:02:43.142Z,5.97
2022-10-30T19:05:48.007Z,6.57
2022-10-30T19:08:14.535Z,6.18
2022-10-30T19:10:41.983Z,6.28
2022-10-30T19:13:14.027Z,5.57
2022-10-30T19:15:42.172Z,6.43
2022-10-30T19:18:08.458Z,4.90
2022-10-30T19:20:50.958Z,5.75
2022-10-30T19:23:22.664Z,4.75
2022-10-30T19:25:49.478Z,6.60
2022-10-30T19:28:16.501Z,5.82
2022-10-30T19:30:45.131Z,5.70
2022-10-30T19:33:11.498Z,6.43
2022-10-30T19:35:37.786Z,5.75
2022-10-30T19:38:07.902Z,5.20
2022-10-30T19:43:00.820Z,5.18
2022-10-30T19:45:28.583Z,4.00
2022-10-30T19:47:56.133Z,5.22
2022-10-30T19:50:22.560Z,7.20
2022-10-30T19:52:49.701Z,5.47
2022-10-30T19:55:16.905Z,4.93
2022-10-30T19:57:43.287Z,4.70
2022-10-30T20:00:12.922Z,5.50
2022-10-30T20:02:39.294Z,4.05
2022-10-30T20:05:06.026Z,4.43
2022-10-30T20:07:32.416Z,4.53
2022-10-30T20:09:58.832Z,5.93
2022-10-30T20:12:25.142Z,4.82
2022-10-30T20:14:51.433Z,4.15
2022-10-30T20:17:17.717Z,5.30
2022-10-30T20:19:44.063Z,4.85
2022-10-30T20:22:10.771Z,4.57
2022-10-30T20:24:37.109Z,4.25
2022-10-30T20:27:03.605Z,6.47
2022-10-30T20:29:29.934Z,4.57
2022-10-30T20:31:56.344Z,7.60
2022-10-30T20:34:23.085Z,5.03
2022-10-30T20:36:49.405Z,5.85
2022-10-30T20:39:15.703Z,6.20
2022-10-30T20:41:42.610Z,4.82
2022-10-30T20:44:12.114Z,3.88
2022-10-30T20:46:38.430Z,4.95
2022-10-30T20:49:16.925Z,4.97
2022-10-30T20:51:43.779Z,5.22
2022-10-30T20:54:10.046Z,6.30
2022-10-30T20:56:36.325Z,4.45
2022-10-30T20:59:02.647Z,4.45
2022-10-30T21:01:29.034Z,4.03
2022-10-30T21:04:00.662Z,5.53
2022-10-30T21:06:28.191Z,4.80
2022-10-30T21:08:54.468Z,4.90
2022-10-30T21:11:20.740Z,4.25
2022-10-30T21:13:47.035Z,3.50
2022-10-30T21:16:13.320Z,4.03
2022-10-30T21:18:39.593Z,3.10
2022-10-30T21:21:07.119Z,4.68
2022-10-30T21:23:33.424Z,3.65
2022-10-30T21:26:00.895Z,3.83
2022-10-30T21:28:27.278Z,4.03
2022-10-30T21:30:54.629Z,4.22
2022-10-30T21:33:20.918Z,3.65
2022-10-30T21:35:47.219Z,3.85
2022-10-30T21:38:13.505Z,4.07
2022-10-30T21:40:39.789Z,5.13
2022-10-30T21:43:06.474Z,5.70
2022-10-30T21:45:32.950Z,6.53
2022-10-30T21:47:59.221Z,5.05
2022-10-30T21:50:25.494Z,5.22
2022-10-30T21:52:51.772Z,4.70
2022-10-30T21:55:18.087Z,5.03
2022-10-30T21:57:44.372Z,5.22
2022-10-30T22:00:10.964Z,5.85
2022-10-30T22:02:37.253Z,6.32
2022-10-30T22:05:03.598Z,5.68
2022-10-30T22:07:29.888Z,7.28
2022-10-30T22:09:56.216Z,5.47
2022-10-30T22:12:22.517Z,5.47
2022-10-30T22:14:48.808Z,6.75
2022-10-30T22:17:15.102Z,5.40
2022-10-30T22:19:41.374Z,6.53
2022-10-30T22:22:07.926Z,5.57
2022-10-30T22:24:34.278Z,3.88
2022-10-30T22:27:00.557Z,4.65
2022-10-30T22:29:26.838Z,5.28
2022-10-30T22:31:53.153Z,4.57
2022-10-30T22:34:19.417Z,3.90
2022-10-30T22:36:46.839Z,3.90
2022-10-30T22:39:13.727Z,4.25
2022-10-30T22:41:40.555Z,4.22
2022-10-30T22:44:08.647Z,3.58
2022-10-30T22:46:36.051Z,4.18
2022-10-30T22:49:02.438Z,4.43
2022-10-30T22:51:30.981Z,3.92
2022-10-30T22:53:58.506Z,6.55
2022-10-30T22:56:25.939Z,4.95
2022-10-30T22:58:52.815Z,4.35
2022-10-30T23:01:26.893Z,5.10
2022-10-30T23:03:55.373Z,3.95
2022-10-30T23:06:22.093Z,5.25
2022-10-30T23:08:48.616Z,6.57
2022-10-30T23:11:15.385Z,5.47
2022-10-30T23:13:41.833Z,5.18
2022-10-30T23:16:10.686Z,4.05
2022-10-30T23:18:37.009Z,6.10
2022-10-30T23:21:05.434Z,4.18
2022-10-30T23:23:34.471Z,3.60
2022-10-30T23:26:08.256Z,4.00
2022-10-30T23:28:34.698Z,3.55
2022-10-30T23:31:03.151Z,4.93
2022-10-30T23:33:29.440Z,3.97
2022-10-30T23:35:59.822Z,4.88
2022-10-30T23:38:26.477Z,4.63
2022-10-30T23:40:52.754Z,4.18
2022-10-30T23:43:19.036Z,4.95
2022-10-30T23:45:45.301Z,4.25
2022-10-30T23:48:11.575Z,6.40
2022-10-30T23:50:37.840Z,5.15
2022-10-30T23:53:04.130Z,3.85
2022-10-30T23:55:30.545Z,4.45
2022-10-30T23:57:57.136Z,4.97
